Time;durP1;ratioP1;P1;durP2;ratioP2;P2;SDS_P1;SDS_P2;PMS_P1;PMS_P2;Temp;Humidity;BMP_temperature;BMP_pressure;BME280_temperature;BME280_humidity;BME280_pressure;Samples;Min_cycle;Max_cycle;Signal;HPM_P1;HPM_P2
2023/01/14 00:02:14;;;;;;;2.00;0.80;;;;;;;;;;4990886;28;20101;-49
2023/01/14 00:04:42;;;;;;;3.03;0.90;;;;;;;;;;4990761;28;20066;-54
2023/01/14 00:07:09;;;;;;;1.92;0.75;;;;;;;;;;4991240;28;20051;-50
2023/01/14 00:09:36;;;;;;;2.72;0.73;;;;;;;;;;4991781;28;20089;-50
2023/01/14 00:12:03;;;;;;;2.15;0.82;;;;;;;;;;4991276;28;20074;-51
2023/01/14 00:14:31;;;;;;;1.38;0.80;;;;;;;;;;4972397;28;20129;-50
2023/01/14 00:17:00;;;;;;;2.75;1.02;;;;;;;;;;4981847;28;20050;-50
2023/01/14 00:19:28;;;;;;;2.42;0.90;;;;;;;;;;4990873;28;20070;-53
2023/01/14 00:21:56;;;;;;;3.53;0.88;;;;;;;;;;4990813;28;20601;-51
2023/01/14 00:24:24;;;;;;;2.78;0.90;;;;;;;;;;4993072;28;20129;-47
2023/01/14 00:26:52;;;;;;;2.40;0.75;;;;;;;;;;4995012;28;20057;-48
2023/01/14 00:29:21;;;;;;;3.30;0.70;;;;;;;;;;4995242;28;20105;-50
2023/01/14 00:31:48;;;;;;;2.33;0.82;;;;;;;;;;4994367;28;20154;-50
2023/01/14 00:34:17;;;;;;;2.45;0.80;;;;;;;;;;4995294;28;20047;-51
2023/01/14 00:36:44;;;;;;;2.45;0.70;;;;;;;;;;4983627;28;20496;-50
2023/01/14 00:39:12;;;;;;;2.78;1.17;;;;;;;;;;4995010;28;20047;-48
2023/01/14 00:41:39;;;;;;;2.50;0.90;;;;;;;;;;4995344;28;20400;-48
2023/01/14 00:44:06;;;;;;;2.65;0.70;;;;;;;;;;4994688;28;20051;-50
2023/01/14 00:46:35;;;;;;;2.25;0.80;;;;;;;;;;4994639;28;20047;-48
2023/01/14 00:49:04;;;;;;;2.95;0.70;;;;;;;;;;4994790;28;20065;-50
2023/01/14 00:51:33;;;;;;;1.63;0.68;;;;;;;;;;4994678;28;20046;-53
2023/01/14 00:54:00;;;;;;;3.40;1.17;;;;;;;;;;4994469;28;20496;-49
2023/01/14 00:56:27;;;;;;;2.10;0.70;;;;;;;;;;4994784;28;20038;-51
2023/01/14 00:58:55;;;;;;;1.55;0.63;;;;;;;;;;4989432;28;20047;-50
2023/01/14 01:01:22;;;;;;;2.28;0.70;;;;;;;;;;4975041;28;20117;-50
2023/01/14 01:03:51;;;;;;;2.03;0.60;;;;;;;;;;4975492;28;20082;-47
2023/01/14 01:06:20;;;;;;;1.33;0.80;;;;;;;;;;4988474;28;20145;-52
2023/01/14 01:08:49;;;;;;;2.95;0.60;;;;;;;;;;4995184;28;20046;-51
2023/01/14 01:11:16;;;;;;;2.28;0.80;;;;;;;;;;4994034;28;20141;-52
2023/01/14 01:13:44;;;;;;;1.08;0.52;;;;;;;;;;4993425;28;20054;-56
2023/01/14 01:16:14;;;;;;;2.35;0.70;;;;;;;;;;4993339;28;20475;-55
2023/01/14 01:18:41;;;;;;;3.75;0.88;;;;;;;;;;4993264;28;20097;-54
2023/01/14 01:21:10;;;;;;;1.30;0.68;;;;;;;;;;4993158;28;20042;-52
2023/01/14 01:23:40;;;;;;;3.13;1.17;;;;;;;;;;4993027;28;20432;-54
2023/01/14 01:26:11;;;;;;;2.83;1.00;;;;;;;;;;4993950;28;20050;-52
2023/01/14 01:28:38;;;;;;;3.58;1.27;;;;;;;;;;4993449;28;20100;-52
2023/01/14 01:31:07;;;;;;;3.30;1.00;;;;;;;;;;4984813;28;20455;-53
2023/01/14 01:33:34;;;;;;;2.45;0.98;;;;;;;;;;4984978;28;20046;-54
2023/01/14 01:36:01;;;;;;;3.45;0.80;;;;;;;;;;4977273;28;20046;-55
2023/01/14 01:38:28;;;;;;;4.88;0.90;;;;;;;;;;4994359;28;20046;-52
2023/01/14 01:40:55;;;;;;;4.75;1.10;;;;;;;;;;4994657;28;20050;-54
2023/01/14 01:43:26;;;;;;;5.07;0.93;;;;;;;;;;4993455;28;20143;-50
2023/01/14 01:45:53;;;;;;;3.80;1.20;;;;;;;;;;4994597;28;20539;-52
2023/01/14 01:48:23;;;;;;;4.18;0.98;;;;;;;;;;4994576;28;20046;-52
2023/01/14 01:50:54;;;;;;;2.27;0.90;;;;;;;;;;4994663;28;20057;-53
2023/01/14 01:53:21;;;;;;;4.97;1.00;;;;;;;;;;4994619;28;20327;-50
2023/01/14 01:55:53;;;;;;;6.05;1.13;;;;;;;;;;4994370;28;20112;-52
2023/01/14 01:58:21;;;;;;;3.60;1.40;;;;;;;;;;4975421;28;20085;-50
2023/01/14 02:00:49;;;;;;;7.10;1.00;;;;;;;;;;4992617;28;20546;-50
2023/01/14 02:03:21;;;;;;;4.55;1.00;;;;;;;;;;4994215;28;20435;-54
2023/01/14 02:05:49;;;;;;;3.45;0.70;;;;;;;;;;4980799;28;20413;-50
2023/01/14 02:08:16;;;;;;;2.30;0.70;;;;;;;;;;4974854;28;20053;-51
2023/01/14 02:10:57;;;;;;;3.55;0.90;;;;;;;;;;4990791;28;20050;-49
2023/01/14 02:13:37;;;;;;;3.15;1.00;;;;;;;;;;4993936;28;20120;-49
2023/01/14 02:16:15;;;;;;;3.00;0.90;;;;;;;;;;4994111;28;20053;-49
2023/01/14 02:18:55;;;;;;;3.70;0.90;;;;;;;;;;4978529;28;20085;-51
2023/01/14 02:21:28;;;;;;;3.67;0.80;;;;;;;;;;4994062;28;20086;-51
2023/01/14 02:24:33;;;;;;;2.42;1.10;;;;;;;;;;4993482;28;20054;-51
2023/01/14 02:27:38;;;;;;;2.35;0.98;;;;;;;;;;4993944;28;20046;-50
2023/01/14 02:30:23;;;;;;;2.47;0.80;;;;;;;;;;4896161;29;20060;-56
2023/01/14 02:32:56;;;;;;;3.13;1.35;;;;;;;;;;4895609;29;20092;-52
2023/01/14 02:35:31;;;;;;;5.20;1.05;;;;;;;;;;4958095;28;20511;-54
2023/01/14 02:38:08;;;;;;;4.32;1.30;;;;;;;;;;4993300;28;20093;-52
2023/01/14 02:40:42;;;;;;;5.10;1.05;;;;;;;;;;4993456;28;20140;-53
2023/01/14 02:46:06;;;;;;;7.00;1.38;;;;;;;;;;4993348;28;20132;-49
2023/01/14 02:48:36;;;;;;;2.15;0.90;;;;;;;;;;4993421;28;20471;-53
2023/01/14 02:51:03;;;;;;;2.80;0.95;;;;;;;;;;4993387;28;20042;-52
2023/01/14 02:53:30;;;;;;;2.53;1.23;;;;;;;;;;4993093;28;20463;-54
2023/01/14 02:55:57;;;;;;;3.97;1.00;;;;;;;;;;4993557;28;20050;-52
2023/01/14 02:59:06;;;;;;;2.58;1.00;;;;;;;;;;4992813;28;20056;-52
2023/01/14 03:01:48;;;;;;;4.13;1.10;;;;;;;;;;4960637;28;20393;-53
2023/01/14 03:04:30;;;;;;;3.92;1.08;;;;;;;;;;4992120;28;20074;-51
2023/01/14 03:07:08;;;;;;;5.25;1.05;;;;;;;;;;4974115;28;20047;-50
2023/01/14 03:09:42;;;;;;;6.90;1.33;;;;;;;;;;4988052;28;20097;-52
2023/01/14 03:12:16;;;;;;;3.75;1.10;;;;;;;;;;4993083;28;20053;-51
2023/01/14 03:14:49;;;;;;;2.75;0.90;;;;;;;;;;4992796;28;20054;-51
2023/01/14 03:17:27;;;;;;;5.13;1.02;;;;;;;;;;4980488;28;20074;-53
2023/01/14 03:20:00;;;;;;;2.40;1.15;;;;;;;;;;4992951;28;20488;-51
2023/01/14 03:22:30;;;;;;;1.88;0.98;;;;;;;;;;4992889;28;20607;-51
2023/01/14 03:24:58;;;;;;;3.60;1.20;;;;;;;;;;4992937;28;20054;-52
2023/01/14 03:27:31;;;;;;;4.55;1.17;;;;;;;;;;4992886;28;20046;-51
2023/01/14 03:30:03;;;;;;;3.25;0.77;;;;;;;;;;4992983;28;20050;-50
2023/01/14 03:32:37;;;;;;;2.90;0.82;;;;;;;;;;4992834;28;20054;-52
2023/01/14 03:35:07;;;;;;;4.07;1.02;;;;;;;;;;4993270;28;20054;-50
2023/01/14 03:37:34;;;;;;;2.35;0.90;;;;;;;;;;4992311;28;20054;-48
2023/01/14 03:40:05;;;;;;;3.88;0.95;;;;;;;;;;4993262;28;20526;-50
2023/01/14 03:42:40;;;;;;;7.07;1.02;;;;;;;;;;4992272;28;20113;-52
2023/01/14 03:45:11;;;;;;;2.78;1.00;;;;;;;;;;4992214;28;20061;-52
2023/01/14 03:47:40;;;;;;;1.38;0.73;;;;;;;;;;4992944;28;20116;-53
2023/01/14 03:50:12;;;;;;;2.85;0.95;;;;;;;;;;4992182;28;20108;-52
2023/01/14 03:52:53;;;;;;;6.15;0.95;;;;;;;;;;4993024;28;20077;-50
2023/01/14 03:55:26;;;;;;;2.53;0.70;;;;;;;;;;4993324;28;20093;-54
2023/01/14 03:57:59;;;;;;;5.85;1.40;;;;;;;;;;4993499;28;20085;-51
2023/01/14 04:00:32;;;;;;;3.92;1.20;;;;;;;;;;4996328;28;20116;-51
2023/01/14 04:03:02;;;;;;;3.60;1.00;;;;;;;;;;4996366;28;20089;-54
2023/01/14 04:05:29;;;;;;;4.13;0.90;;;;;;;;;;4993862;28;20074;-52
2023/01/14 04:07:58;;;;;;;7.43;1.23;;;;;;;;;;4996337;28;20105;-52
2023/01/14 04:10:24;;;;;;;2.88;1.05;;;;;;;;;;4996301;28;20072;-52
2023/01/14 04:15:35;;;;;;;2.53;0.80;;;;;;;;;;4997867;28;20072;-50
2023/01/14 04:18:03;;;;;;;3.22;1.23;;;;;;;;;;4997501;28;20042;-50
2023/01/14 04:20:31;;;;;;;3.05;1.00;;;;;;;;;;4996695;28;20046;-50
2023/01/14 04:22:58;;;;;;;3.78;0.82;;;;;;;;;;4996602;28;20085;-52
2023/01/14 04:25:24;;;;;;;3.65;0.90;;;;;;;;;;4996131;28;20499;-48
2023/01/14 04:27:51;;;;;;;4.72;1.08;;;;;;;;;;4996117;28;20042;-48
2023/01/14 04:30:18;;;;;;;6.85;1.00;;;;;;;;;;4995938;28;20058;-49
2023/01/14 04:32:45;;;;;;;3.45;0.80;;;;;;;;;;4996248;28;20074;-50
2023/01/14 04:35:13;;;;;;;4.03;0.77;;;;;;;;;;4996031;28;20475;-50
2023/01/14 04:37:39;;;;;;;4.60;1.23;;;;;;;;;;4995760;28;20054;-50
2023/01/14 04:40:07;;;;;;;4.25;1.38;;;;;;;;;;4995588;28;20046;-49
2023/01/14 04:42:34;;;;;;;4.53;0.98;;;;;;;;;;4995682;28;20042;-49
2023/01/14 04:45:03;;;;;;;4.80;1.20;;;;;;;;;;4995623;28;20073;-49
2023/01/14 04:47:31;;;;;;;2.83;1.20;;;;;;;;;;4995820;28;20495;-48
2023/01/14 04:50:30;;;;;;;3.17;0.88;;;;;;;;;;4995643;28;20054;-49
2023/01/14 04:52:46;;;;;;;6.13;1.20;;;;;;;;;;4995379;28;20081;-49
2023/01/14 04:55:13;;;;;;;2.92;0.80;;;;;;;;;;4995632;28;20105;-49
2023/01/14 04:57:40;;;;;;;7.13;1.17;;;;;;;;;;4995700;28;20412;-51
2023/01/14 05:00:08;;;;;;;3.38;1.27;;;;;;;;;;4995359;28;20046;-50
2023/01/14 05:02:35;;;;;;;5.18;1.27;;;;;;;;;;4978239;28;20058;-52
2023/01/14 05:05:02;;;;;;;3.92;1.02;;;;;;;;;;4995489;28;20508;-51
2023/01/14 05:07:28;;;;;;;4.53;1.17;;;;;;;;;;4995682;28;20047;-49
2023/01/14 05:09:57;;;;;;;4.15;1.50;;;;;;;;;;4994393;28;20104;-49
2023/01/14 05:12:23;;;;;;;3.72;1.02;;;;;;;;;;4995361;28;20046;-49
2023/01/14 05:14:50;;;;;;;4.05;1.00;;;;;;;;;;4995235;28;20109;-49
2023/01/14 05:17:52;;;;;;;5.03;1.20;;;;;;;;;;4995447;28;20129;-50
2023/01/14 05:20:18;;;;;;;3.47;0.80;;;;;;;;;;4994874;28;20096;-52
2023/01/14 05:22:45;;;;;;;3.58;0.80;;;;;;;;;;4995284;28;20474;-48
2023/01/14 05:25:14;;;;;;;7.03;1.13;;;;;;;;;;4995508;28;20050;-49
2023/01/14 05:27:41;;;;;;;2.33;0.75;;;;;;;;;;4995459;28;20133;-47
2023/01/14 05:30:09;;;;;;;3.25;0.80;;;;;;;;;;4994760;28;20128;-48
2023/01/14 05:32:36;;;;;;;4.95;0.85;;;;;;;;;;4994866;28;20096;-48
2023/01/14 05:35:03;;;;;;;3.22;0.98;;;;;;;;;;4995022;28;20467;-48
2023/01/14 05:37:30;;;;;;;7.95;1.58;;;;;;;;;;4994968;28;20100;-48
2023/01/14 05:39:57;;;;;;;5.10;1.05;;;;;;;;;;4995078;28;20570;-48
2023/01/14 05:47:55;;;;;;;5.72;1.00;;;;;;;;;;4994719;28;20100;-49
2023/01/14 05:50:22;;;;;;;5.55;1.45;;;;;;;;;;4994386;28;20096;-49
2023/01/14 05:52:48;;;;;;;4.70;1.75;;;;;;;;;;4994405;28;20054;-50
2023/01/14 05:55:15;;;;;;;3.25;1.30;;;;;;;;;;4994533;28;20062;-49
2023/01/14 05:57:43;;;;;;;4.75;1.33;;;;;;;;;;4994412;28;20050;-49
2023/01/14 06:06:20;;;;;;;5.43;1.05;;;;;;;;;;4994426;28;20054;-50
2023/01/14 06:08:36;;;;;;;3.75;1.17;;;;;;;;;;4994325;28;20054;-49
2023/01/14 06:11:02;;;;;;;4.25;0.90;;;;;;;;;;4994097;28;20515;-50
2023/01/14 06:13:31;;;;;;;2.60;0.93;;;;;;;;;;4994309;28;20109;-52
2023/01/14 06:16:02;;;;;;;5.40;1.20;;;;;;;;;;4994349;28;20145;-50
2023/01/14 06:18:37;;;;;;;4.47;1.20;;;;;;;;;;4994166;28;20048;-50
2023/01/14 06:21:05;;;;;;;3.47;0.98;;;;;;;;;;4993755;28;20050;-51
2023/01/14 06:23:32;;;;;;;4.75;1.20;;;;;;;;;;4994389;28;20443;-50
2023/01/14 06:25:59;;;;;;;3.40;2.15;;;;;;;;;;4993818;28;20105;-49
2023/01/14 06:28:25;;;;;;;4.55;1.67;;;;;;;;;;4993814;28;20054;-53
2023/01/14 06:30:53;;;;;;;5.25;1.60;;;;;;;;;;4993871;28;20092;-52
2023/01/14 06:33:20;;;;;;;4.18;1.52;;;;;;;;;;4994044;28;20050;-50
2023/01/14 06:35:47;;;;;;;6.22;1.42;;;;;;;;;;4993726;28;20050;-50
2023/01/14 06:38:14;;;;;;;3.45;1.40;;;;;;;;;;4993783;28;20447;-51
2023/01/14 06:40:41;;;;;;;5.88;1.35;;;;;;;;;;4993360;28;20050;-50
2023/01/14 06:43:09;;;;;;;5.07;1.30;;;;;;;;;;4993520;28;20136;-49
2023/01/14 06:45:36;;;;;;;4.22;1.10;;;;;;;;;;4993171;28;20050;-49
2023/01/14 06:48:04;;;;;;;3.50;1.15;;;;;;;;;;4993670;28;20618;-49
2023/01/14 06:50:31;;;;;;;5.90;1.15;;;;;;;;;;4993326;28;20058;-49
2023/01/14 06:53:00;;;;;;;8.57;1.48;;;;;;;;;;4993305;28;20466;-51
2023/01/14 06:55:27;;;;;;;4.25;1.38;;;;;;;;;;4993273;28;20061;-50
2023/01/14 06:57:54;;;;;;;3.70;1.38;;;;;;;;;;4993194;28;20133;-51
2023/01/14 07:00:21;;;;;;;6.57;1.85;;;;;;;;;;4993304;28;20046;-49
2023/01/14 07:02:48;;;;;;;6.60;1.88;;;;;;;;;;4993406;28;20046;-49
2023/01/14 07:05:16;;;;;;;7.63;1.67;;;;;;;;;;4984246;28;20559;-50
2023/01/14 07:07:45;;;;;;;6.75;1.65;;;;;;;;;;4973998;28;20054;-50
2023/01/14 07:10:12;;;;;;;7.18;1.92;;;;;;;;;;4973631;28;20472;-49
2023/01/14 07:12:39;;;;;;;7.55;2.03;;;;;;;;;;4973927;28;20043;-50
2023/01/14 07:15:07;;;;;;;4.53;1.23;;;;;;;;;;4973466;28;20582;-48
2023/01/14 07:17:34;;;;;;;4.85;1.80;;;;;;;;;;4973820;28;20050;-49
2023/01/14 07:20:00;;;;;;;7.00;1.80;;;;;;;;;;4973418;28;20511;-49
2023/01/14 07:22:28;;;;;;;7.30;2.10;;;;;;;;;;4973350;28;20078;-50
2023/01/14 07:24:55;;;;;;;8.82;2.50;;;;;;;;;;4979746;28;20081;-50
2023/01/14 07:27:22;;;;;;;5.68;2.10;;;;;;;;;;4992746;28;20065;-49
2023/01/14 07:29:49;;;;;;;7.40;1.70;;;;;;;;;;4993110;28;20073;-51
2023/01/14 07:32:15;;;;;;;5.95;1.73;;;;;;;;;;4992201;28;20047;-53
2023/01/14 07:34:42;;;;;;;4.53;1.30;;;;;;;;;;4993037;28;20105;-49
2023/01/14 07:37:09;;;;;;;10.60;2.47;;;;;;;;;;4992812;28;20125;-51
2023/01/14 07:39:37;;;;;;;6.35;1.40;;;;;;;;;;4992815;28;20054;-50
2023/01/14 07:42:04;;;;;;;6.35;2.25;;;;;;;;;;4992885;28;20105;-50
2023/01/14 07:44:31;;;;;;;6.03;2.00;;;;;;;;;;4993066;28;20598;-48
2023/01/14 07:46:58;;;;;;;11.00;2.80;;;;;;;;;;4992645;28;20050;-49
2023/01/14 07:49:25;;;;;;;4.35;1.50;;;;;;;;;;4992569;28;20042;-52
2023/01/14 07:51:53;;;;;;;7.72;1.88;;;;;;;;;;4982406;28;20046;-52
2023/01/14 07:54:20;;;;;;;4.70;1.52;;;;;;;;;;4992470;28;20132;-52
2023/01/14 07:56:49;;;;;;;4.82;1.50;;;;;;;;;;4992297;28;20057;-54
2023/01/14 07:59:16;;;;;;;4.10;1.42;;;;;;;;;;4992608;28;20050;-53
2023/01/14 08:01:43;;;;;;;3.95;1.60;;;;;;;;;;4992159;28;20054;-52
2023/01/14 08:04:09;;;;;;;5.15;1.52;;;;;;;;;;4992394;28;20051;-52
2023/01/14 08:06:36;;;;;;;3.72;1.10;;;;;;;;;;4989748;28;20046;-51
2023/01/14 08:09:06;;;;;;;6.35;1.60;;;;;;;;;;4992442;28;20670;-52
2023/01/14 08:11:36;;;;;;;8.90;3.45;;;;;;;;;;4992082;28;20046;-54
2023/01/14 08:14:04;;;;;;;5.30;1.27;;;;;;;;;;4992328;28;20088;-56
2023/01/14 08:16:31;;;;;;;4.43;1.60;;;;;;;;;;4992222;28;20050;-52
2023/01/14 08:18:57;;;;;;;8.40;1.98;;;;;;;;;;4992301;28;20108;-51
2023/01/14 08:21:24;;;;;;;8.32;1.95;;;;;;;;;;4992075;28;20061;-51
2023/01/14 08:23:51;;;;;;;8.48;2.17;;;;;;;;;;4992049;28;20070;-51
2023/01/14 08:26:17;;;;;;;5.65;1.70;;;;;;;;;;4991664;28;20180;-53
2023/01/14 08:28:44;;;;;;;7.95;1.95;;;;;;;;;;4992363;28;20080;-51
2023/01/14 08:31:14;;;;;;;9.40;2.45;;;;;;;;;;4992129;28;20523;-50
2023/01/14 08:33:42;;;;;;;8.80;2.33;;;;;;;;;;4992303;28;20077;-54
2023/01/14 08:36:12;;;;;;;6.47;2.10;;;;;;;;;;4992081;28;20132;-53
2023/01/14 08:38:40;;;;;;;5.07;1.88;;;;;;;;;;4992575;28;20058;-51
2023/01/14 08:41:09;;;;;;;7.10;2.10;;;;;;;;;;4991968;28;20481;-52
2023/01/14 08:43:36;;;;;;;6.70;1.55;;;;;;;;;;4992129;28;20046;-52
2023/01/14 08:46:04;;;;;;;5.22;1.48;;;;;;;;;;4994438;28;20082;-52
2023/01/14 08:48:32;;;;;;;5.43;2.03;;;;;;;;;;4995517;28;20050;-50
2023/01/14 08:51:01;;;;;;;4.20;1.63;;;;;;;;;;4994934;28;20051;-49
2023/01/14 08:53:28;;;;;;;6.97;1.85;;;;;;;;;;4995150;28;20046;-53
2023/01/14 08:55:56;;;;;;;7.53;1.45;;;;;;;;;;4994724;28;20100;-50
2023/01/14 08:58:23;;;;;;;6.90;2.03;;;;;;;;;;4995882;28;20137;-54
2023/01/14 09:00:50;;;;;;;7.55;1.98;;;;;;;;;;4994923;28;20062;-51
2023/01/14 09:03:17;;;;;;;9.60;2.63;;;;;;;;;;4995270;28;20120;-51
2023/01/14 09:05:47;;;;;;;7.35;2.13;;;;;;;;;;4995517;28;20491;-52
2023/01/14 09:19:13;;;;;;;8.90;1.77;;;;;;;;;;4992811;28;20057;-54
2023/01/14 09:21:41;;;;;;;6.43;1.40;;;;;;;;;;4994447;28;20042;-51
2023/01/14 09:24:08;;;;;;;5.57;1.40;;;;;;;;;;4994921;28;20105;-50
2023/01/14 09:26:35;;;;;;;5.55;1.55;;;;;;;;;;4995347;28;20050;-51
2023/01/14 09:29:02;;;;;;;5.22;1.90;;;;;;;;;;4995092;28;20057;-52
2023/01/14 09:31:29;;;;;;;3.75;1.58;;;;;;;;;;4994601;28;20050;-52
2023/01/14 09:33:55;;;;;;;5.68;1.80;;;;;;;;;;4987088;28;20047;-54
2023/01/14 09:36:22;;;;;;;5.07;1.60;;;;;;;;;;4984865;28;20441;-51
2023/01/14 09:38:50;;;;;;;6.40;2.20;;;;;;;;;;4990555;28;20451;-53
2023/01/14 09:41:36;;;;;;;7.18;2.72;;;;;;;;;;4983199;28;20115;-52
2023/01/14 09:44:06;;;;;;;5.70;1.60;;;;;;;;;;4984194;28;20054;-52
2023/01/14 09:46:34;;;;;;;4.78;1.75;;;;;;;;;;4985597;28;20054;-53
2023/01/14 09:49:03;;;;;;;5.85;1.50;;;;;;;;;;4988416;28;20050;-56
2023/01/14 09:51:48;;;;;;;7.82;2.05;;;;;;;;;;4994217;28;20054;-52
2023/01/14 09:54:23;;;;;;;4.65;1.70;;;;;;;;;;4986554;28;20051;-54
2023/01/14 09:56:58;;;;;;;6.03;1.70;;;;;;;;;;4994348;28;20058;-52
2023/01/14 09:59:30;;;;;;;6.53;1.60;;;;;;;;;;4994476;28;20050;-52
2023/01/14 10:02:02;;;;;;;5.35;1.60;;;;;;;;;;4994247;28;20447;-51
2023/01/14 10:04:49;;;;;;;5.53;1.95;;;;;;;;;;4991651;28;20097;-53
2023/01/14 10:07:18;;;;;;;6.15;2.13;;;;;;;;;;4994206;28;20046;-51
2023/01/14 10:09:49;;;;;;;5.13;1.70;;;;;;;;;;4989870;28;20050;-51
2023/01/14 10:12:20;;;;;;;6.85;2.30;;;;;;;;;;4987314;28;20060;-50
2023/01/14 10:14:52;;;;;;;4.40;1.60;;;;;;;;;;4994179;28;20042;-51
2023/01/14 10:17:24;;;;;;;3.63;1.45;;;;;;;;;;4994111;28;20046;-53
2023/01/14 10:19:52;;;;;;;6.10;1.98;;;;;;;;;;4994399;28;20078;-51
2023/01/14 10:22:33;;;;;;;5.93;1.90;;;;;;;;;;4994498;28;20070;-53
2023/01/14 10:25:01;;;;;;;5.78;2.42;;;;;;;;;;4993763;28;20046;-54
2023/01/14 10:27:31;;;;;;;7.97;2.83;;;;;;;;;;4993800;28;20093;-55
2023/01/14 10:30:14;;;;;;;7.70;3.47;;;;;;;;;;4994661;28;20112;-52
2023/01/14 10:32:41;;;;;;;8.57;2.72;;;;;;;;;;4993598;28;20077;-53
2023/01/14 10:35:14;;;;;;;5.13;2.00;;;;;;;;;;4993976;28;20050;-53
2023/01/14 10:37:40;;;;;;;7.57;2.35;;;;;;;;;;4993834;28;20108;-52
2023/01/14 10:40:18;;;;;;;5.93;1.90;;;;;;;;;;4993997;28;20050;-53
2023/01/14 10:42:45;;;;;;;4.43;1.70;;;;;;;;;;4993701;28;20047;-59
2023/01/14 10:45:13;;;;;;;4.95;1.40;;;;;;;;;;4993417;28;20054;-69
2023/01/14 10:47:41;;;;;;;4.50;1.40;;;;;;;;;;4983589;28;20051;-57
2023/01/14 10:50:18;;;;;;;3.85;1.20;;;;;;;;;;4993798;28;20451;-46
2023/01/14 10:52:45;;;;;;;3.80;1.58;;;;;;;;;;4984299;28;20138;-56
2023/01/14 10:55:17;;;;;;;3.33;1.23;;;;;;;;;;4992052;28;20496;-51
2023/01/14 10:57:48;;;;;;;3.60;1.40;;;;;;;;;;4993731;28;20078;-67
2023/01/14 11:00:32;;;;;;;5.28;1.20;;;;;;;;;;4993798;28;20046;-58
2023/01/14 11:03:01;;;;;;;2.75;1.40;;;;;;;;;;4993329;28;20042;-55
2023/01/14 11:05:30;;;;;;;3.60;1.30;;;;;;;;;;4983094;28;20690;-54
2023/01/14 11:08:00;;;;;;;3.97;1.08;;;;;;;;;;4982115;28;20050;-55
2023/01/14 11:10:30;;;;;;;3.60;1.00;;;;;;;;;;4993085;28;20100;-51
2023/01/14 11:13:15;;;;;;;3.45;1.05;;;;;;;;;;4992936;28;20050;-53
2023/01/14 11:15:45;;;;;;;2.33;0.75;;;;;;;;;;4993107;28;20393;-51
2023/01/14 11:18:31;;;;;;;3.80;1.02;;;;;;;;;;4993431;28;20619;-51
2023/01/14 11:21:06;;;;;;;3.28;0.93;;;;;;;;;;4993549;28;20046;-53
2023/01/14 11:23:35;;;;;;;5.03;1.45;;;;;;;;;;4992706;28;20108;-51
2023/01/14 11:26:08;;;;;;;3.35;1.33;;;;;;;;;;4993190;28;20101;-53
2023/01/14 11:28:38;;;;;;;4.88;1.50;;;;;;;;;;4992392;28;20057;-56
2023/01/14 11:31:06;;;;;;;3.35;1.25;;;;;;;;;;4992680;28;20046;-52
2023/01/14 11:33:33;;;;;;;2.45;1.60;;;;;;;;;;4992565;28;20042;-52
2023/01/14 11:36:01;;;;;;;3.70;1.35;;;;;;;;;;4992945;28;20112;-54
2023/01/14 11:38:29;;;;;;;4.20;1.20;;;;;;;;;;4992538;28;20081;-51
2023/01/14 11:43:57;;;;;;;2.47;1.40;;;;;;;;;;4991157;28;20084;-55
2023/01/14 11:46:24;;;;;;;2.88;0.90;;;;;;;;;;4991687;28;20039;-53
2023/01/14 11:49:00;;;;;;;2.97;1.15;;;;;;;;;;4992006;28;20093;-55
2023/01/14 11:51:29;;;;;;;3.38;1.00;;;;;;;;;;4992199;28;20126;-51
2023/01/14 11:53:57;;;;;;;3.83;1.17;;;;;;;;;;4992467;28;20043;-52
2023/01/14 11:56:31;;;;;;;2.83;1.20;;;;;;;;;;4992493;28;20523;-54
2023/01/14 11:59:02;;;;;;;2.92;1.10;;;;;;;;;;4992530;28;20439;-52
2023/01/14 12:01:34;;;;;;;5.13;1.45;;;;;;;;;;4991145;28;20412;-52
2023/01/14 12:04:05;;;;;;;4.30;1.58;;;;;;;;;;4991912;28;20415;-51
2023/01/14 12:06:43;;;;;;;2.85;1.20;;;;;;;;;;4988799;28;20137;-51
2023/01/14 12:09:18;;;;;;;3.80;1.25;;;;;;;;;;4992213;28;20089;-53
2023/01/14 12:11:51;;;;;;;4.45;1.35;;;;;;;;;;4992484;28;20125;-54
2023/01/14 12:17:12;;;;;;;5.88;1.17;;;;;;;;;;4992653;28;20056;-53
2023/01/14 12:19:44;;;;;;;4.00;1.42;;;;;;;;;;4993662;28;20129;-52
2023/01/14 12:22:16;;;;;;;4.80;1.45;;;;;;;;;;4996529;28;20046;-52
2023/01/14 12:24:56;;;;;;;2.58;0.95;;;;;;;;;;4991143;28;20050;-53
2023/01/14 12:27:43;;;;;;;2.90;1.00;;;;;;;;;;4996164;28;20050;-52
2023/01/14 12:30:38;;;;;;;3.67;1.30;;;;;;;;;;4995647;28;20060;-53
2023/01/14 12:33:14;;;;;;;4.07;1.80;;;;;;;;;;4995796;28;20054;-51
2023/01/14 12:35:44;;;;;;;5.82;1.90;;;;;;;;;;4995915;28;20415;-53
2023/01/14 12:46:31;;;;;;;2.97;1.13;;;;;;;;;;4995712;28;20057;-54
2023/01/14 12:48:59;;;;;;;4.07;1.63;;;;;;;;;;4995676;28;20050;-54
2023/01/14 12:51:30;;;;;;;4.07;1.40;;;;;;;;;;4995770;28;20133;-52
2023/01/14 12:53:58;;;;;;;;;;;;;;;;;;4982687;28;20097;-53
2023/01/14 12:56:28;;;;;;;4.18;1.30;;;;;;;;;;4994460;28;19995;-50
2023/01/14 12:58:58;;;;;;;3.85;1.30;;;;;;;;;;4994804;28;20124;-51
2023/01/14 13:01:28;;;;;;;3.55;1.10;;;;;;;;;;4995787;28;20043;-52
2023/01/14 13:03:58;;;;;;;3.53;1.30;;;;;;;;;;4995206;28;20471;-54
2023/01/14 13:06:28;;;;;;;;;;;;;;;;;;4977904;28;20272;-53
2023/01/14 13:08:57;;;;;;;2.85;1.02;;;;;;;;;;4994000;28;19922;-54
2023/01/14 13:11:27;;;;;;;2.78;0.98;;;;;;;;;;4995705;28;20471;-52
2023/01/14 13:13:55;;;;;;;2.77;0.77;;;;;;;;;;4994596;28;20166;-53
2023/01/14 13:16:44;;;;;;;3.83;1.33;;;;;;;;;;4995139;28;20046;-52
2023/01/14 13:19:47;;;;;;;4.75;1.92;;;;;;;;;;4988100;28;20109;-52
2023/01/14 13:22:45;;;;;;;3.05;1.13;;;;;;;;;;4995000;28;20046;-52
2023/01/14 13:25:36;;;;;;;2.58;0.90;;;;;;;;;;4994574;28;20050;-54
2023/01/14 13:28:32;;;;;;;2.67;0.98;;;;;;;;;;4995109;28;20065;-62
2023/01/14 13:31:34;;;;;;;3.92;0.90;;;;;;;;;;4994121;28;20077;-52
2023/01/14 13:34:37;;;;;;;3.65;1.15;;;;;;;;;;4896907;29;20060;-50
2023/01/14 13:37:19;;;;;;;2.78;0.90;;;;;;;;;;4887997;29;20478;-53
2023/01/14 13:39:52;;;;;;;3.33;1.20;;;;;;;;;;4975379;28;20057;-52
2023/01/14 13:42:25;;;;;;;2.22;1.17;;;;;;;;;;4995288;28;20703;-55
2023/01/14 13:44:54;;;;;;;3.40;0.95;;;;;;;;;;4995145;28;20050;-53
2023/01/14 13:47:25;;;;;;;3.30;1.17;;;;;;;;;;4994673;28;20058;-55
2023/01/14 13:49:58;;;;;;;3.00;1.17;;;;;;;;;;4995027;28;20142;-54
2023/01/14 13:52:26;;;;;;;3.47;1.30;;;;;;;;;;4994120;28;20058;-52
2023/01/14 13:54:57;;;;;;;3.88;1.38;;;;;;;;;;4994188;28;20487;-52
2023/01/14 13:57:31;;;;;;;3.72;1.20;;;;;;;;;;4994130;28;20082;-56
2023/01/14 14:00:01;;;;;;;3.35;1.35;;;;;;;;;;4994493;28;20046;-53
2023/01/14 14:02:49;;;;;;;3.67;1.20;;;;;;;;;;4982625;28;20108;-51
2023/01/14 14:05:38;;;;;;;2.13;1.02;;;;;;;;;;4994457;28;20058;-51
2023/01/14 14:08:26;;;;;;;3.05;1.20;;;;;;;;;;4987355;28;20097;-50
2023/01/14 14:11:06;;;;;;;2.72;1.38;;;;;;;;;;4994364;28;20137;-53
2023/01/14 14:16:25;;;;;;;3.97;1.80;;;;;;;;;;4994491;28;20255;-52
2023/01/14 14:18:57;;;;;;;4.05;1.52;;;;;;;;;;4994503;28;20359;-54
2023/01/14 14:21:33;;;;;;;4.53;1.65;;;;;;;;;;4994255;28;20109;-53
2023/01/14 14:24:05;;;;;;;5.07;2.47;;;;;;;;;;4994261;28;20392;-53
2023/01/14 14:26:33;;;;;;;5.22;1.83;;;;;;;;;;4993907;28;20054;-55
2023/01/14 14:29:07;;;;;;;3.65;1.25;;;;;;;;;;4993952;28;20046;-55
2023/01/14 14:31:37;;;;;;;3.50;1.40;;;;;;;;;;4993385;28;20046;-53
2023/01/14 14:34:08;;;;;;;2.88;1.40;;;;;;;;;;4994524;28;20116;-56
2023/01/14 14:36:37;;;;;;;;;;;;;;;;;;4994226;28;20053;-55
2023/01/14 14:39:04;;;;;;;3.10;1.48;;;;;;;;;;4994017;28;20350;-50
2023/01/14 14:41:35;;;;;;;3.88;1.75;;;;;;;;;;4993401;28;20057;-52
2023/01/14 14:44:07;;;;;;;3.88;1.55;;;;;;;;;;4993075;28;20046;-52
2023/01/14 14:46:34;;;;;;;3.55;1.45;;;;;;;;;;4993777;28;20046;-55
2023/01/14 14:49:13;;;;;;;4.03;1.73;;;;;;;;;;4993634;28;20051;-53
2023/01/14 14:51:47;;;;;;;4.22;1.52;;;;;;;;;;4993542;28;20050;-53
2023/01/14 14:54:25;;;;;;;3.80;1.67;;;;;;;;;;4993597;28;20130;-52
2023/01/14 14:56:52;;;;;;;4.07;1.35;;;;;;;;;;4993545;28;20070;-52
2023/01/14 14:59:19;;;;;;;3.05;1.40;;;;;;;;;;4993499;28;20104;-54
2023/01/14 15:01:47;;;;;;;2.70;1.30;;;;;;;;;;4993438;28;20050;-51
2023/01/14 15:04:20;;;;;;;2.75;1.55;;;;;;;;;;4992603;28;20046;-51
2023/01/14 15:06:49;;;;;;;3.45;1.30;;;;;;;;;;4978845;28;20104;-53
2023/01/14 15:09:19;;;;;;;3.28;1.48;;;;;;;;;;4993441;28;20510;-51
2023/01/14 15:11:47;;;;;;;5.03;1.48;;;;;;;;;;4993035;28;20054;-51
2023/01/14 15:14:24;;;;;;;5.07;2.08;;;;;;;;;;4993268;28;20542;-52
2023/01/14 15:16:52;;;;;;;3.97;1.60;;;;;;;;;;4992995;28;20050;-52
2023/01/14 15:19:20;;;;;;;3.90;1.80;;;;;;;;;;4993424;28;20054;-53
2023/01/14 15:21:49;;;;;;;3.72;1.80;;;;;;;;;;4992666;28;20089;-52
2023/01/14 15:24:18;;;;;;;6.82;1.70;;;;;;;;;;4993275;28;20052;-55
2023/01/14 15:26:46;;;;;;;4.20;2.03;;;;;;;;;;4992850;28;20109;-50
2023/01/14 15:29:21;;;;;;;4.45;2.08;;;;;;;;;;4993069;28;20042;-52
2023/01/14 15:31:48;;;;;;;4.03;1.67;;;;;;;;;;4992558;28;20456;-55
2023/01/14 15:34:26;;;;;;;3.03;1.60;;;;;;;;;;4993217;28;20058;-53
2023/01/14 15:37:20;;;;;;;5.72;1.80;;;;;;;;;;4993006;28;20046;-54
2023/01/14 15:39:47;;;;;;;4.45;2.00;;;;;;;;;;4993071;28;20050;-56
2023/01/14 15:42:20;;;;;;;3.20;1.63;;;;;;;;;;4992033;28;20102;-54
2023/01/14 15:44:49;;;;;;;3.75;1.58;;;;;;;;;;4992671;28;20133;-53
2023/01/14 15:47:20;;;;;;;4.15;1.70;;;;;;;;;;4992834;28;20046;-51
2023/01/14 15:49:47;;;;;;;;;;;;;;;;;;4993302;28;20054;-54
2023/01/14 15:52:34;;;;;;;4.03;1.67;;;;;;;;;;4992511;28;19922;-55